Terminal Aerodrome Forecast
Issued by NWS

Current Version | Previous Version | Text Only | Print | Product List | Glossary On
Versions: 1 2 3 4 5 6 7 8 9 10 11 12 13 14 15 16 17
000
FTUS44 KHGX 160813 AAA
TAFUTS
TAF AMD
KUTS 160813Z 1608/1706 34011G21KT 4SM -SNPL BR OVC005
     FM161500 36012KT 6SM -SN BR OVC025
     FM162000 35013KT P6SM OVC045
     FM162200 35011KT P6SM BKN070 BKN250
     FM170200 36006KT P6SM BKN100=

USA.gov is the U.S. government's official web portal to all federal, state and local government web resources and services.